Westlake, Ohio
Current Conditions -  °F | °C
As of 5:51 PM on Monday 22 Dec 2014 (Local Time) from KCLE Reporting Station
Broken Clouds Broken Clouds  
Wind Chill: 33°   Ceiling: 25000
Heat Index: 40°   Visibility: 10mi
Dew Point: 31°   Wind: 10mph
Humidity: 70%   Direction: 120°ESE
Pressure: 29.96"   Gusts: NA
Location:  41.46°N, 81.92°W
Report Text: KCLE 222251Z 12009KT 10SM FEW150 SCT180 BKN250 04/M01 A2996 RMK AO2 SLP151 T00441006
Loading
Personal Weather Stations






























Interactive Weather Map New forecast layout! Learn more

10-Day Weather Forecast

Advertisements
Track Severe Weather on mobile